Caledon, Canada
Current Conditions -  °F | °C
As of 7:00 AM on Thursday 18 Dec 2014 (Local Time) from CYYZ Reporting Station
Overcast Overcast  
Wind Chill: -7°   Ceiling: 1600
Heat Index: -1°   Visibility: 15mi
Dew Point: -4°   Wind: 13mph
Humidity: 80%   Direction: 310°NW
Pressure: 30.08"   Gusts: 18mph
Location:  43.87°N, 80°W
Report Text: CYYZ 181200Z 31011G16KT 15SM OVC016 M01/M04 A3008 RMK SF8 SLP194
Loading
Personal Weather Stations






























Interactive Weather Map New forecast layout! Learn more

10-Day Weather Forecast

Advertisements
Track Severe Weather on mobile